createdAt,value
2023-03-06T00:01:28.360Z,996.1
2023-03-06T00:06:34.592Z,996
2023-03-06T00:11:40.534Z,996
2023-03-06T00:21:52.773Z,995.9
2023-03-06T00:26:58.840Z,995.9
2023-03-06T00:32:04.913Z,995.8
2023-03-06T00:37:11.027Z,995.8
2023-03-06T00:42:17.101Z,995.8
2023-03-06T00:47:23.208Z,995.8
2023-03-06T00:52:28.346Z,995.7
2023-03-06T00:57:34.423Z,995.7
2023-03-06T01:02:40.506Z,995.6
2023-03-06T01:07:46.613Z,995.6
2023-03-06T01:12:52.712Z,995.5
2023-03-06T01:17:58.816Z,995.4
2023-03-06T01:23:04.897Z,995.4
2023-03-06T01:28:10.995Z,995.4
2023-03-06T01:33:17.111Z,995.3
2023-03-06T01:38:23.189Z,995.2
2023-03-06T01:43:29.320Z,995.1
2023-03-06T01:48:35.388Z,995.1
2023-03-06T01:53:41.487Z,995
2023-03-06T01:58:46.667Z,995
2023-03-06T02:03:52.747Z,995
2023-03-06T02:08:58.797Z,994.8
2023-03-06T02:14:04.907Z,994.8
2023-03-06T02:19:11.007Z,994.8
2023-03-06T02:24:17.100Z,994.7
2023-03-06T02:29:23.199Z,994.7
2023-03-06T02:34:29.300Z,994.7
2023-03-06T02:39:35.391Z,994.7
2023-03-06T02:44:41.498Z,994.7
2023-03-06T02:49:47.595Z,994.6
2023-03-06T02:54:53.680Z,994.5
2023-03-06T02:59:59.770Z,994.5
2023-03-06T03:05:04.896Z,994.4
2023-03-06T03:10:11.000Z,994.5
2023-03-06T03:15:17.078Z,994.4
2023-03-06T03:20:23.242Z,994.4
2023-03-06T03:25:29.292Z,994.3
2023-03-06T03:30:35.394Z,994.3
2023-03-06T03:35:41.472Z,994.3
2023-03-06T03:40:47.685Z,994.3
2023-03-06T03:45:53.667Z,994.3
2023-03-06T03:50:59.790Z,994.3
2023-03-06T03:56:05.860Z,994.2
2023-03-06T04:01:12.066Z,994.1
2023-03-06T04:06:18.063Z,994.2
2023-03-06T04:11:23.227Z,994.1
2023-03-06T04:16:29.278Z,994.1
2023-03-06T04:21:35.371Z,994.1
2023-03-06T04:26:41.557Z,994
2023-03-06T04:31:47.564Z,994
2023-03-06T04:36:53.658Z,993.9
2023-03-06T04:41:59.809Z,993.9
2023-03-06T04:47:05.897Z,993.8
2023-03-06T04:52:11.955Z,993.7
2023-03-06T04:57:18.047Z,993.7
2023-03-06T05:02:24.160Z,993.6
2023-03-06T05:07:30.262Z,993.6
2023-03-06T05:12:36.357Z,993.5
2023-03-06T05:17:41.504Z,993.6
2023-03-06T05:22:47.605Z,993.5
2023-03-06T05:27:53.674Z,993.4
2023-03-06T05:32:59.757Z,993.4
2023-03-06T05:38:05.863Z,993.4
2023-03-06T05:43:11.977Z,993.4
2023-03-06T05:48:18.146Z,993.3
2023-03-06T05:53:24.173Z,993.4
2023-03-06T05:58:30.275Z,993.4
2023-03-06T06:03:36.358Z,993.5
2023-03-06T06:08:42.475Z,993.4
2023-03-06T06:13:48.569Z,993.4
2023-03-06T06:18:54.679Z,993.3
2023-03-06T06:23:59.780Z,993.2
2023-03-06T06:29:05.941Z,993.2
2023-03-06T06:34:11.964Z,993.3
2023-03-06T06:39:18.109Z,993.3
2023-03-06T06:44:24.180Z,993.3
2023-03-06T06:49:30.490Z,993.3
2023-03-06T06:54:36.586Z,993.3
2023-03-06T06:59:42.660Z,993.3
2023-03-06T07:04:48.641Z,993.3
2023-03-06T07:09:54.808Z,993.2
2023-03-06T07:15:00.856Z,993.3
2023-03-06T07:20:07.017Z,993.3
2023-03-06T07:25:13.035Z,993.4
2023-03-06T07:30:18.124Z,993.4
2023-03-06T07:35:24.247Z,993.4
2023-03-06T07:40:30.362Z,993.3
2023-03-06T07:50:42.531Z,993.3
2023-03-06T07:55:48.733Z,993.4
2023-03-06T08:00:54.860Z,993.3
2023-03-06T08:06:00.853Z,993.3
2023-03-06T08:11:07.047Z,993.3
2023-03-06T08:16:13.059Z,993.3
2023-03-06T08:21:19.081Z,993.2
2023-03-06T08:26:25.230Z,993.2
2023-03-06T08:31:31.399Z,993.1
2023-03-06T08:36:36.505Z,993.1
2023-03-06T08:41:42.612Z,993.1
2023-03-06T08:46:48.531Z,993.2
2023-03-06T08:51:54.638Z,993.2
2023-03-06T08:57:00.726Z,993.2
2023-03-06T09:02:06.960Z,993.3
2023-03-06T09:07:13.001Z,993.3
2023-03-06T09:12:19.059Z,993.3
2023-03-06T09:17:25.103Z,993.3
2023-03-06T09:22:31.206Z,993.2
2023-03-06T09:27:37.425Z,993.2
2023-03-06T09:32:43.431Z,993.3
2023-03-06T09:37:49.697Z,993.4
2023-03-06T09:42:54.658Z,993.4
2023-03-06T09:48:00.849Z,993.3
2023-03-06T09:53:06.935Z,993.3
2023-03-06T09:58:12.974Z,993.4
2023-03-06T10:03:19.191Z,993.3
2023-03-06T10:08:25.207Z,993.3
2023-03-06T10:13:31.260Z,993.2
2023-03-06T10:18:37.418Z,993.2
2023-03-06T10:23:43.445Z,993.2
2023-03-06T10:28:49.607Z,993.1
2023-03-06T10:33:55.648Z,993.1
2023-03-06T10:39:01.825Z,993
2023-03-06T10:44:07.788Z,993.1
2023-03-06T10:49:12.916Z,993
2023-03-06T10:54:18.991Z,993
2023-03-06T10:59:25.232Z,993
2023-03-06T11:04:31.322Z,992.9
2023-03-06T11:09:37.487Z,992.8
2023-03-06T11:14:43.390Z,992.8
2023-03-06T11:19:49.591Z,992.8
2023-03-06T11:24:55.599Z,992.8
2023-03-06T11:35:07.814Z,992.7
2023-03-06T11:40:13.871Z,992.7
2023-03-06T11:45:19.938Z,992.8
2023-03-06T11:50:26.038Z,992.9
2023-03-06T11:55:31.155Z,992.9
2023-03-06T12:00:37.278Z,992.5
2023-03-06T12:05:43.433Z,992.5
2023-03-06T12:10:49.485Z,992.6
2023-03-06T12:15:55.679Z,992.5
2023-03-06T12:21:01.720Z,992.4
2023-03-06T12:26:06.806Z,992.4
2023-03-06T12:31:12.903Z,992.4
2023-03-06T12:36:19.024Z,992.4
2023-03-06T12:41:25.054Z,992.3
2023-03-06T12:46:31.240Z,992.3
2023-03-06T12:51:37.318Z,992.3
2023-03-06T12:56:43.451Z,992.3
2023-03-06T13:01:49.443Z,992.2
2023-03-06T13:06:55.597Z,992.3
2023-03-06T13:12:01.659Z,992.3
2023-03-06T13:17:07.731Z,992.2
2023-03-06T13:27:19.948Z,992.3
2023-03-06T13:32:25.165Z,992.2
2023-03-06T13:37:31.148Z,992.2
2023-03-06T13:42:37.427Z,992.1
2023-03-06T13:47:43.464Z,992.1
2023-03-06T13:52:49.603Z,992.1
2023-03-06T13:57:55.589Z,992
2023-03-06T14:03:01.750Z,992
2023-03-06T14:08:07.862Z,992
2023-03-06T14:13:13.848Z,991.9
2023-03-06T14:18:20.142Z,991.9
2023-03-06T14:23:26.116Z,991.9
2023-03-06T14:28:32.128Z,991.9
2023-03-06T14:33:38.322Z,991.8
2023-03-06T14:38:43.480Z,991.8
2023-03-06T14:43:49.541Z,991.8
2023-03-06T14:48:55.521Z,991.9
2023-03-06T14:54:01.776Z,991.9
2023-03-06T14:59:07.846Z,991.8
2023-03-06T15:04:13.910Z,992
2023-03-06T15:09:20.025Z,991.9
2023-03-06T15:14:26.046Z,991.9
2023-03-06T15:19:32.093Z,991.9
2023-03-06T15:24:38.193Z,991.8
2023-03-06T15:29:44.298Z,992
2023-03-06T15:34:50.398Z,992
2023-03-06T15:39:56.597Z,991.9
2023-03-06T15:45:01.750Z,992
2023-03-06T15:50:07.697Z,992
2023-03-06T15:55:13.871Z,992
2023-03-06T16:00:19.896Z,991.9
2023-03-06T16:05:26.143Z,991.8
2023-03-06T16:10:32.211Z,992
2023-03-06T16:15:38.216Z,992
2023-03-06T16:20:44.306Z,991.9
2023-03-06T16:25:50.572Z,992
2023-03-06T16:30:56.473Z,992
2023-03-06T16:36:02.714Z,992.1
2023-03-06T16:41:08.659Z,992.2
2023-03-06T16:46:14.903Z,992.2
2023-03-06T16:51:19.928Z,992.3
2023-03-06T16:56:25.973Z,992.2
2023-03-06T17:01:32.120Z,992.2
2023-03-06T17:06:38.193Z,992.2
2023-03-06T17:11:44.256Z,992.3
2023-03-06T17:16:50.416Z,992.3
2023-03-06T17:21:56.453Z,992.3
2023-03-06T17:27:02.602Z,992.4
2023-03-06T17:32:08.675Z,992.5
2023-03-06T17:37:14.747Z,992.5
2023-03-06T17:42:20.849Z,992.5
2023-03-06T17:47:27.005Z,992.5
2023-03-06T17:52:33.126Z,992.4
2023-03-06T17:57:38.180Z,992.5
2023-03-06T18:02:44.262Z,992.4
2023-03-06T18:07:50.380Z,992.5
2023-03-06T18:12:56.441Z,992.6
2023-03-06T18:18:02.551Z,992.6
2023-03-06T18:23:08.699Z,992.6
2023-03-06T18:28:14.739Z,992.5
2023-03-06T18:33:20.832Z,992.5
2023-03-06T18:38:26.943Z,992.5
2023-03-06T18:43:33.055Z,992.6
2023-03-06T18:48:39.141Z,992.7
2023-03-06T18:53:45.235Z,992.6
2023-03-06T18:58:51.333Z,992.5
2023-03-06T19:03:56.459Z,992.5
2023-03-06T19:09:02.551Z,992.5
2023-03-06T19:14:08.652Z,992.5
2023-03-06T19:19:14.767Z,992.6
2023-03-06T19:24:20.902Z,992.5
2023-03-06T19:29:26.943Z,992.5
2023-03-06T19:34:33.033Z,992.6
2023-03-06T19:39:39.141Z,992.5
2023-03-06T19:44:45.234Z,992.5
2023-03-06T19:49:51.331Z,992.5
2023-03-06T19:54:57.424Z,992.4
2023-03-06T20:00:03.578Z,992.4
2023-03-06T20:05:09.621Z,992.3
2023-03-06T20:10:14.743Z,992.2
2023-03-06T20:15:20.826Z,992.2
2023-03-06T20:20:26.928Z,992.4
2023-03-06T20:25:33.033Z,992.2
2023-03-06T20:30:39.144Z,992.3
2023-03-06T20:35:45.278Z,992.2
2023-03-06T20:40:51.322Z,992.2
2023-03-06T20:45:57.417Z,992.2
2023-03-06T20:51:03.530Z,992.1
2023-03-06T20:56:09.613Z,992
2023-03-06T21:01:15.713Z,992.1
2023-03-06T21:06:21.843Z,992
2023-03-06T21:11:27.917Z,992
2023-03-06T21:16:33.018Z,991.9
2023-03-06T21:21:39.129Z,991.7
2023-03-06T21:26:45.278Z,991.7
2023-03-06T21:31:51.347Z,991.7
2023-03-06T21:36:57.436Z,991.7
2023-03-06T21:42:03.525Z,991.7
2023-03-06T21:47:09.627Z,991.7
2023-03-06T21:52:15.739Z,991.6
2023-03-06T21:57:21.841Z,991.5
2023-03-06T22:02:27.964Z,991.4
2023-03-06T22:07:34.030Z,991.4
2023-03-06T22:12:40.127Z,991.4
2023-03-06T22:17:46.256Z,991.4
2023-03-06T22:22:51.350Z,991.3
2023-03-06T22:27:57.449Z,991.2
2023-03-06T22:33:03.547Z,991.1
2023-03-06T22:38:09.642Z,991
2023-03-06T22:43:15.739Z,991
2023-03-06T22:48:21.824Z,990.9
2023-03-06T22:53:27.976Z,990.9
2023-03-06T22:58:34.043Z,990.9
2023-03-06T23:03:40.133Z,990.7
2023-03-06T23:08:46.240Z,990.7
2023-03-06T23:13:52.386Z,990.6
2023-03-06T23:18:58.453Z,990.6
2023-03-06T23:24:04.558Z,990.6
2023-03-06T23:29:09.640Z,990.5
2023-03-06T23:34:15.743Z,990.5
2023-03-06T23:39:21.887Z,990.4
2023-03-06T23:44:27.951Z,990.4
2023-03-06T23:49:34.099Z,990.4
2023-03-06T23:54:40.175Z,990.3
2023-03-06T23:59:46.260Z,990.2
